Terminal Aerodrome Forecast
Issued by NWS

Home | Current Version | Previous Version | Text Only | Print | Product List | Glossary On
Versions: 1 2 3 4 5 6 7 8 9 10 11 12 13 14 15 16 17 18 19 20 21
000
FTUS43 KDLH 220353 AAC
TAFHYR
TAF AMD
KHYR 220353Z 2204/2224 17004KT 3SM -SHRA BR SCT015 OVC050
      TEMPO 2204/2205 1 1/2SM -TSRA SCT010 OVC025CB
     FM220600 VRB03KT 5SM BR BKN025
     FM221000 00000KT 1 1/2SM BR BKN005
     FM221500 VRB04KT P6SM BKN008
     FM222200 26004KT P6SM BKN040=

USA.gov is the U.S. government's official web portal to all federal, state and local government web resources and services.